sensor_id;sensor_type;location;lat;lon;timestamp;P1;durP1;ratioP1;P2;durP2;ratioP2
30173;SDS011;16985;50.814;8.530;2024-01-07T00:00:45;6.68;;;4.03;;
30173;SDS011;16985;50.814;8.530;2024-01-07T00:03:10;5.93;;;3.67;;
30173;SDS011;16985;50.814;8.530;2024-01-07T00:08:14;4.72;;;3.58;;
30173;SDS011;16985;50.814;8.530;2024-01-07T00:10:43;7.47;;;4.00;;
30173;SDS011;16985;50.814;8.530;2024-01-07T00:13:11;5.53;;;3.92;;
30173;SDS011;16985;50.814;8.530;2024-01-07T00:15:43;5.72;;;3.45;;
30173;SDS011;16985;50.814;8.530;2024-01-07T00:18:19;7.65;;;3.58;;
30173;SDS011;16985;50.814;8.530;2024-01-07T00:20:49;6.25;;;3.78;;
30173;SDS011;16985;50.814;8.530;2024-01-07T00:23:21;7.00;;;4.30;;
30173;SDS011;16985;50.814;8.530;2024-01-07T00:25:47;6.97;;;3.75;;
30173;SDS011;16985;50.814;8.530;2024-01-07T00:28:13;6.25;;;3.45;;
30173;SDS011;16985;50.814;8.530;2024-01-07T00:30:38;5.90;;;3.13;;
30173;SDS011;16985;50.814;8.530;2024-01-07T00:33:04;5.40;;;3.72;;
30173;SDS011;16985;50.814;8.530;2024-01-07T00:35:30;4.40;;;3.25;;
30173;SDS011;16985;50.814;8.530;2024-01-07T00:37:56;5.20;;;3.47;;
30173;SDS011;16985;50.814;8.530;2024-01-07T00:40:23;3.63;;;2.72;;
30173;SDS011;16985;50.814;8.530;2024-01-07T00:42:49;3.65;;;2.90;;
30173;SDS011;16985;50.814;8.530;2024-01-07T00:45:16;3.45;;;2.65;;
30173;SDS011;16985;50.814;8.530;2024-01-07T00:47:43;7.25;;;3.17;;
30173;SDS011;16985;50.814;8.530;2024-01-07T00:50:08;4.22;;;2.55;;
30173;SDS011;16985;50.814;8.530;2024-01-07T00:52:34;4.25;;;2.53;;
30173;SDS011;16985;50.814;8.530;2024-01-07T00:55:03;4.38;;;2.75;;
30173;SDS011;16985;50.814;8.530;2024-01-07T00:57:31;3.10;;;2.53;;
30173;SDS011;16985;50.814;8.530;2024-01-07T00:59:58;3.00;;;2.22;;
30173;SDS011;16985;50.814;8.530;2024-01-07T01:02:25;4.00;;;2.67;;
30173;SDS011;16985;50.814;8.530;2024-01-07T01:04:51;4.65;;;2.25;;
30173;SDS011;16985;50.814;8.530;2024-01-07T01:07:17;4.20;;;2.20;;
30173;SDS011;16985;50.814;8.530;2024-01-07T01:09:43;3.03;;;2.13;;
30173;SDS011;16985;50.814;8.530;2024-01-07T01:12:08;3.42;;;2.35;;
30173;SDS011;16985;50.814;8.530;2024-01-07T01:14:34;2.97;;;2.60;;
30173;SDS011;16985;50.814;8.530;2024-01-07T01:17:00;4.85;;;2.22;;
30173;SDS011;16985;50.814;8.530;2024-01-07T01:19:26;2.53;;;2.22;;
30173;SDS011;16985;50.814;8.530;2024-01-07T01:21:51;2.70;;;2.40;;
30173;SDS011;16985;50.814;8.530;2024-01-07T01:24:17;3.30;;;2.58;;
30173;SDS011;16985;50.814;8.530;2024-01-07T01:26:43;5.05;;;2.30;;
30173;SDS011;16985;50.814;8.530;2024-01-07T01:29:09;3.03;;;2.35;;
30173;SDS011;16985;50.814;8.530;2024-01-07T01:31:35;3.05;;;2.38;;
30173;SDS011;16985;50.814;8.530;2024-01-07T01:34:00;5.70;;;2.33;;
30173;SDS011;16985;50.814;8.530;2024-01-07T01:36:26;2.60;;;2.28;;
30173;SDS011;16985;50.814;8.530;2024-01-07T01:38:52;4.05;;;2.35;;
30173;SDS011;16985;50.814;8.530;2024-01-07T01:41:18;4.35;;;3.28;;
30173;SDS011;16985;50.814;8.530;2024-01-07T01:43:44;5.15;;;3.15;;
30173;SDS011;16985;50.814;8.530;2024-01-07T01:46:09;3.95;;;2.95;;
30173;SDS011;16985;50.814;8.530;2024-01-07T01:48:35;4.43;;;3.45;;
30173;SDS011;16985;50.814;8.530;2024-01-07T01:51:02;3.72;;;2.88;;
30173;SDS011;16985;50.814;8.530;2024-01-07T01:53:28;3.95;;;3.15;;
30173;SDS011;16985;50.814;8.530;2024-01-07T01:55:55;4.90;;;3.10;;
30173;SDS011;16985;50.814;8.530;2024-01-07T01:58:22;3.13;;;2.72;;
30173;SDS011;16985;50.814;8.530;2024-01-07T02:00:49;4.85;;;3.22;;
30173;SDS011;16985;50.814;8.530;2024-01-07T02:03:18;3.75;;;2.78;;
30173;SDS011;16985;50.814;8.530;2024-01-07T02:05:44;4.50;;;2.80;;
30173;SDS011;16985;50.814;8.530;2024-01-07T02:08:10;5.10;;;3.15;;
30173;SDS011;16985;50.814;8.530;2024-01-07T02:10:37;3.90;;;2.72;;
30173;SDS011;16985;50.814;8.530;2024-01-07T02:13:03;4.00;;;3.20;;
30173;SDS011;16985;50.814;8.530;2024-01-07T02:15:30;5.53;;;3.10;;
30173;SDS011;16985;50.814;8.530;2024-01-07T02:17:56;4.47;;;3.35;;
30173;SDS011;16985;50.814;8.530;2024-01-07T02:20:22;4.53;;;3.67;;
30173;SDS011;16985;50.814;8.530;2024-01-07T02:22:49;3.90;;;2.97;;
30173;SDS011;16985;50.814;8.530;2024-01-07T02:25:15;4.80;;;3.25;;
30173;SDS011;16985;50.814;8.530;2024-01-07T02:27:40;4.38;;;3.13;;
30173;SDS011;16985;50.814;8.530;2024-01-07T02:30:06;4.28;;;3.17;;
30173;SDS011;16985;50.814;8.530;2024-01-07T02:32:33;3.30;;;2.70;;
30173;SDS011;16985;50.814;8.530;2024-01-07T02:35:01;4.22;;;2.78;;
30173;SDS011;16985;50.814;8.530;2024-01-07T02:37:27;3.40;;;3.05;;
30173;SDS011;16985;50.814;8.530;2024-01-07T02:39:53;3.25;;;2.60;;
30173;SDS011;16985;50.814;8.530;2024-01-07T02:42:19;4.40;;;2.90;;
30173;SDS011;16985;50.814;8.530;2024-01-07T02:44:44;4.55;;;3.00;;
30173;SDS011;16985;50.814;8.530;2024-01-07T02:47:10;4.13;;;3.20;;
30173;SDS011;16985;50.814;8.530;2024-01-07T02:49:36;4.82;;;3.13;;
30173;SDS011;16985;50.814;8.530;2024-01-07T02:52:02;4.47;;;3.65;;
30173;SDS011;16985;50.814;8.530;2024-01-07T02:54:28;4.50;;;3.33;;
30173;SDS011;16985;50.814;8.530;2024-01-07T02:56:53;5.60;;;3.83;;
30173;SDS011;16985;50.814;8.530;2024-01-07T02:59:19;8.15;;;4.85;;
30173;SDS011;16985;50.814;8.530;2024-01-07T03:01:45;7.15;;;5.03;;
30173;SDS011;16985;50.814;8.530;2024-01-07T03:04:12;8.63;;;4.07;;
30173;SDS011;16985;50.814;8.530;2024-01-07T03:06:41;9.63;;;4.97;;
30173;SDS011;16985;50.814;8.530;2024-01-07T03:09:07;8.45;;;5.20;;
30173;SDS011;16985;50.814;8.530;2024-01-07T03:11:38;10.00;;;6.10;;
30173;SDS011;16985;50.814;8.530;2024-01-07T03:14:06;11.40;;;5.85;;
30173;SDS011;16985;50.814;8.530;2024-01-07T03:16:32;11.50;;;6.07;;
30173;SDS011;16985;50.814;8.530;2024-01-07T03:18:58;9.57;;;5.85;;
30173;SDS011;16985;50.814;8.530;2024-01-07T03:21:23;7.78;;;5.35;;
30173;SDS011;16985;50.814;8.530;2024-01-07T03:23:50;8.57;;;5.90;;
30173;SDS011;16985;50.814;8.530;2024-01-07T03:26:17;11.70;;;7.00;;
30173;SDS011;16985;50.814;8.530;2024-01-07T03:28:44;10.85;;;6.50;;
30173;SDS011;16985;50.814;8.530;2024-01-07T03:31:11;11.95;;;6.53;;
30173;SDS011;16985;50.814;8.530;2024-01-07T03:33:39;10.13;;;6.32;;
30173;SDS011;16985;50.814;8.530;2024-01-07T03:36:09;11.50;;;6.65;;
30173;SDS011;16985;50.814;8.530;2024-01-07T03:38:37;12.27;;;6.57;;
30173;SDS011;16985;50.814;8.530;2024-01-07T03:41:04;11.38;;;6.80;;
30173;SDS011;16985;50.814;8.530;2024-01-07T03:43:30;12.60;;;7.43;;
30173;SDS011;16985;50.814;8.530;2024-01-07T03:45:56;10.35;;;6.55;;
30173;SDS011;16985;50.814;8.530;2024-01-07T03:48:22;16.17;;;7.75;;
30173;SDS011;16985;50.814;8.530;2024-01-07T03:50:48;12.25;;;6.70;;
30173;SDS011;16985;50.814;8.530;2024-01-07T03:53:14;13.95;;;6.78;;
30173;SDS011;16985;50.814;8.530;2024-01-07T03:55:42;14.15;;;7.70;;
30173;SDS011;16985;50.814;8.530;2024-01-07T03:58:07;13.65;;;8.23;;
30173;SDS011;16985;50.814;8.530;2024-01-07T04:00:33;12.55;;;7.63;;
30173;SDS011;16985;50.814;8.530;2024-01-07T04:03:00;15.07;;;8.65;;
30173;SDS011;16985;50.814;8.530;2024-01-07T04:05:26;13.40;;;8.30;;
30173;SDS011;16985;50.814;8.530;2024-01-07T04:07:54;17.25;;;8.52;;
30173;SDS011;16985;50.814;8.530;2024-01-07T04:10:20;13.55;;;7.97;;
30173;SDS011;16985;50.814;8.530;2024-01-07T04:12:46;15.15;;;9.05;;
30173;SDS011;16985;50.814;8.530;2024-01-07T04:15:12;16.23;;;9.00;;
30173;SDS011;16985;50.814;8.530;2024-01-07T04:17:38;16.33;;;8.98;;
30173;SDS011;16985;50.814;8.530;2024-01-07T04:20:04;15.82;;;9.73;;
30173;SDS011;16985;50.814;8.530;2024-01-07T04:22:31;17.38;;;9.13;;
30173;SDS011;16985;50.814;8.530;2024-01-07T04:24:57;18.70;;;10.02;;
30173;SDS011;16985;50.814;8.530;2024-01-07T04:27:23;20.30;;;10.77;;
30173;SDS011;16985;50.814;8.530;2024-01-07T04:29:50;21.88;;;11.60;;
30173;SDS011;16985;50.814;8.530;2024-01-07T04:32:16;18.08;;;10.10;;
30173;SDS011;16985;50.814;8.530;2024-01-07T04:34:42;21.77;;;11.20;;
30173;SDS011;16985;50.814;8.530;2024-01-07T04:37:07;21.00;;;11.55;;
30173;SDS011;16985;50.814;8.530;2024-01-07T04:39:33;23.25;;;11.52;;
30173;SDS011;16985;50.814;8.530;2024-01-07T04:41:59;19.15;;;11.15;;
30173;SDS011;16985;50.814;8.530;2024-01-07T04:44:25;19.67;;;11.10;;
30173;SDS011;16985;50.814;8.530;2024-01-07T04:46:51;20.80;;;11.68;;
30173;SDS011;16985;50.814;8.530;2024-01-07T04:49:16;23.65;;;12.30;;
30173;SDS011;16985;50.814;8.530;2024-01-07T04:51:42;21.88;;;12.20;;
30173;SDS011;16985;50.814;8.530;2024-01-07T04:54:08;22.52;;;11.43;;
30173;SDS011;16985;50.814;8.530;2024-01-07T04:56:34;21.55;;;11.27;;
30173;SDS011;16985;50.814;8.530;2024-01-07T04:58:59;20.85;;;10.90;;
30173;SDS011;16985;50.814;8.530;2024-01-07T05:01:25;17.52;;;10.15;;
30173;SDS011;16985;50.814;8.530;2024-01-07T05:03:51;20.20;;;10.57;;
30173;SDS011;16985;50.814;8.530;2024-01-07T05:06:17;21.48;;;11.23;;
30173;SDS011;16985;50.814;8.530;2024-01-07T05:08:42;18.38;;;11.63;;
30173;SDS011;16985;50.814;8.530;2024-01-07T05:11:08;18.00;;;11.07;;
30173;SDS011;16985;50.814;8.530;2024-01-07T05:13:35;20.10;;;11.18;;
30173;SDS011;16985;50.814;8.530;2024-01-07T05:16:00;19.10;;;11.68;;
30173;SDS011;16985;50.814;8.530;2024-01-07T05:18:27;20.75;;;11.77;;
30173;SDS011;16985;50.814;8.530;2024-01-07T05:20:53;20.15;;;12.05;;
30173;SDS011;16985;50.814;8.530;2024-01-07T05:23:19;22.23;;;12.20;;
30173;SDS011;16985;50.814;8.530;2024-01-07T05:25:45;20.73;;;12.02;;
30173;SDS011;16985;50.814;8.530;2024-01-07T05:28:11;19.88;;;12.77;;
30173;SDS011;16985;50.814;8.530;2024-01-07T05:30:39;23.92;;;11.38;;
30173;SDS011;16985;50.814;8.530;2024-01-07T05:33:05;23.08;;;14.10;;
30173;SDS011;16985;50.814;8.530;2024-01-07T05:35:31;24.05;;;12.85;;
30173;SDS011;16985;50.814;8.530;2024-01-07T05:37:57;24.08;;;12.55;;
30173;SDS011;16985;50.814;8.530;2024-01-07T05:40:23;19.73;;;12.07;;
30173;SDS011;16985;50.814;8.530;2024-01-07T05:42:49;22.13;;;13.68;;
30173;SDS011;16985;50.814;8.530;2024-01-07T05:45:15;28.85;;;14.00;;
30173;SDS011;16985;50.814;8.530;2024-01-07T05:47:40;27.00;;;13.38;;
30173;SDS011;16985;50.814;8.530;2024-01-07T05:50:07;26.77;;;13.50;;
30173;SDS011;16985;50.814;8.530;2024-01-07T05:52:33;23.73;;;13.27;;
30173;SDS011;16985;50.814;8.530;2024-01-07T05:54:59;25.45;;;14.48;;
30173;SDS011;16985;50.814;8.530;2024-01-07T05:57:25;26.92;;;15.43;;
30173;SDS011;16985;50.814;8.530;2024-01-07T05:59:51;25.85;;;14.07;;
30173;SDS011;16985;50.814;8.530;2024-01-07T06:02:17;25.27;;;14.82;;
30173;SDS011;16985;50.814;8.530;2024-01-07T06:04:43;22.65;;;12.75;;
30173;SDS011;16985;50.814;8.530;2024-01-07T06:07:09;20.23;;;12.65;;
30173;SDS011;16985;50.814;8.530;2024-01-07T06:09:35;22.40;;;12.93;;
30173;SDS011;16985;50.814;8.530;2024-01-07T06:12:01;23.88;;;13.65;;
30173;SDS011;16985;50.814;8.530;2024-01-07T06:14:27;28.23;;;14.68;;
30173;SDS011;16985;50.814;8.530;2024-01-07T06:16:53;26.50;;;14.70;;
30173;SDS011;16985;50.814;8.530;2024-01-07T06:19:19;27.90;;;14.95;;
30173;SDS011;16985;50.814;8.530;2024-01-07T06:21:46;30.33;;;15.63;;
30173;SDS011;16985;50.814;8.530;2024-01-07T06:24:12;28.75;;;15.82;;
30173;SDS011;16985;50.814;8.530;2024-01-07T06:26:38;32.63;;;16.42;;
30173;SDS011;16985;50.814;8.530;2024-01-07T06:29:05;25.30;;;14.68;;
30173;SDS011;16985;50.814;8.530;2024-01-07T06:31:31;25.52;;;15.55;;
30173;SDS011;16985;50.814;8.530;2024-01-07T06:33:56;25.67;;;15.50;;
30173;SDS011;16985;50.814;8.530;2024-01-07T06:36:22;23.85;;;14.32;;
30173;SDS011;16985;50.814;8.530;2024-01-07T06:38:50;29.10;;;16.27;;
30173;SDS011;16985;50.814;8.530;2024-01-07T06:41:16;26.55;;;15.48;;
30173;SDS011;16985;50.814;8.530;2024-01-07T06:43:41;26.60;;;15.18;;
30173;SDS011;16985;50.814;8.530;2024-01-07T06:46:07;27.75;;;15.68;;
30173;SDS011;16985;50.814;8.530;2024-01-07T06:48:33;29.33;;;16.02;;
30173;SDS011;16985;50.814;8.530;2024-01-07T06:50:59;24.52;;;15.15;;
30173;SDS011;16985;50.814;8.530;2024-01-07T06:53:25;25.65;;;14.85;;
30173;SDS011;16985;50.814;8.530;2024-01-07T06:55:50;31.15;;;17.25;;
30173;SDS011;16985;50.814;8.530;2024-01-07T06:58:16;33.00;;;18.20;;
30173;SDS011;16985;50.814;8.530;2024-01-07T07:00:42;34.95;;;17.83;;
30173;SDS011;16985;50.814;8.530;2024-01-07T07:03:08;33.33;;;18.73;;
30173;SDS011;16985;50.814;8.530;2024-01-07T07:05:34;36.78;;;18.50;;
30173;SDS011;16985;50.814;8.530;2024-01-07T07:08:00;33.10;;;17.75;;
30173;SDS011;16985;50.814;8.530;2024-01-07T07:10:27;35.97;;;18.08;;
30173;SDS011;16985;50.814;8.530;2024-01-07T07:12:53;32.05;;;16.05;;
30173;SDS011;16985;50.814;8.530;2024-01-07T07:15:19;33.67;;;18.30;;
30173;SDS011;16985;50.814;8.530;2024-01-07T07:17:44;31.85;;;16.02;;
30173;SDS011;16985;50.814;8.530;2024-01-07T07:20:10;29.83;;;16.35;;
30173;SDS011;16985;50.814;8.530;2024-01-07T07:22:36;31.58;;;17.98;;
30173;SDS011;16985;50.814;8.530;2024-01-07T07:25:02;32.83;;;17.05;;
30173;SDS011;16985;50.814;8.530;2024-01-07T07:27:30;33.88;;;17.90;;
30173;SDS011;16985;50.814;8.530;2024-01-07T07:29:56;31.23;;;17.55;;
30173;SDS011;16985;50.814;8.530;2024-01-07T07:32:22;30.80;;;17.60;;
30173;SDS011;16985;50.814;8.530;2024-01-07T07:34:48;30.20;;;15.45;;
30173;SDS011;16985;50.814;8.530;2024-01-07T07:37:13;36.70;;;18.80;;
30173;SDS011;16985;50.814;8.530;2024-01-07T07:39:39;31.75;;;17.35;;
30173;SDS011;16985;50.814;8.530;2024-01-07T07:42:05;34.38;;;17.63;;
30173;SDS011;16985;50.814;8.530;2024-01-07T07:44:31;34.13;;;17.63;;
30173;SDS011;16985;50.814;8.530;2024-01-07T07:46:57;31.35;;;17.83;;
30173;SDS011;16985;50.814;8.530;2024-01-07T07:49:23;32.30;;;17.83;;
30173;SDS011;16985;50.814;8.530;2024-01-07T07:51:48;31.83;;;18.10;;
30173;SDS011;16985;50.814;8.530;2024-01-07T07:54:14;31.60;;;17.27;;
30173;SDS011;16985;50.814;8.530;2024-01-07T07:56:40;34.28;;;18.92;;
30173;SDS011;16985;50.814;8.530;2024-01-07T07:59:06;35.95;;;18.80;;
30173;SDS011;16985;50.814;8.530;2024-01-07T08:01:34;33.17;;;17.25;;
30173;SDS011;16985;50.814;8.530;2024-01-07T08:04:00;33.15;;;17.60;;
30173;SDS011;16985;50.814;8.530;2024-01-07T08:06:27;35.33;;;18.50;;
30173;SDS011;16985;50.814;8.530;2024-01-07T08:08:53;32.00;;;17.33;;
30173;SDS011;16985;50.814;8.530;2024-01-07T08:11:20;35.35;;;17.85;;
30173;SDS011;16985;50.814;8.530;2024-01-07T08:13:45;29.98;;;17.42;;
30173;SDS011;16985;50.814;8.530;2024-01-07T08:16:12;33.25;;;18.00;;
30173;SDS011;16985;50.814;8.530;2024-01-07T08:18:38;27.75;;;16.02;;
30173;SDS011;16985;50.814;8.530;2024-01-07T08:21:05;30.55;;;16.95;;
30173;SDS011;16985;50.814;8.530;2024-01-07T08:23:31;30.27;;;17.38;;
30173;SDS011;16985;50.814;8.530;2024-01-07T08:25:57;29.00;;;16.83;;
30173;SDS011;16985;50.814;8.530;2024-01-07T08:28:23;27.05;;;16.48;;
30173;SDS011;16985;50.814;8.530;2024-01-07T08:30:49;27.25;;;16.38;;
30173;SDS011;16985;50.814;8.530;2024-01-07T08:33:16;29.23;;;15.25;;
30173;SDS011;16985;50.814;8.530;2024-01-07T08:35:43;22.98;;;14.15;;
30173;SDS011;16985;50.814;8.530;2024-01-07T08:38:08;23.50;;;14.65;;
30173;SDS011;16985;50.814;8.530;2024-01-07T08:40:34;26.58;;;15.32;;
30173;SDS011;16985;50.814;8.530;2024-01-07T08:43:01;26.88;;;15.13;;
30173;SDS011;16985;50.814;8.530;2024-01-07T08:45:27;24.02;;;14.35;;
30173;SDS011;16985;50.814;8.530;2024-01-07T08:47:53;24.88;;;15.20;;
30173;SDS011;16985;50.814;8.530;2024-01-07T08:50:19;25.20;;;15.13;;
30173;SDS011;16985;50.814;8.530;2024-01-07T08:52:46;23.88;;;13.85;;
30173;SDS011;16985;50.814;8.530;2024-01-07T08:55:12;20.05;;;13.70;;
30173;SDS011;16985;50.814;8.530;2024-01-07T08:57:38;23.23;;;14.30;;
30173;SDS011;16985;50.814;8.530;2024-01-07T09:00:04;26.55;;;14.05;;
30173;SDS011;16985;50.814;8.530;2024-01-07T09:02:32;19.75;;;13.88;;
30173;SDS011;16985;50.814;8.530;2024-01-07T09:04:58;20.55;;;14.15;;
30173;SDS011;16985;50.814;8.530;2024-01-07T09:07:24;21.73;;;14.75;;
30173;SDS011;16985;50.814;8.530;2024-01-07T09:09:50;21.20;;;13.52;;
30173;SDS011;16985;50.814;8.530;2024-01-07T09:12:16;22.73;;;13.10;;
30173;SDS011;16985;50.814;8.530;2024-01-07T09:14:42;18.85;;;12.60;;
30173;SDS011;16985;50.814;8.530;2024-01-07T09:17:08;19.55;;;13.43;;
30173;SDS011;16985;50.814;8.530;2024-01-07T09:19:34;21.05;;;13.85;;
30173;SDS011;16985;50.814;8.530;2024-01-07T09:21:59;20.30;;;12.93;;
30173;SDS011;16985;50.814;8.530;2024-01-07T09:24:25;22.27;;;15.02;;
30173;SDS011;16985;50.814;8.530;2024-01-07T09:26:51;22.73;;;13.95;;
30173;SDS011;16985;50.814;8.530;2024-01-07T09:29:17;17.90;;;11.77;;
30173;SDS011;16985;50.814;8.530;2024-01-07T09:31:43;23.33;;;13.43;;
30173;SDS011;16985;50.814;8.530;2024-01-07T09:34:09;22.55;;;14.35;;
30173;SDS011;16985;50.814;8.530;2024-01-07T09:36:35;22.63;;;13.63;;
30173;SDS011;16985;50.814;8.530;2024-01-07T09:39:01;20.02;;;14.15;;
30173;SDS011;16985;50.814;8.530;2024-01-07T09:43:55;18.65;;;12.20;;
30173;SDS011;16985;50.814;8.530;2024-01-07T09:46:24;19.02;;;12.60;;
30173;SDS011;16985;50.814;8.530;2024-01-07T09:48:52;17.73;;;11.88;;
30173;SDS011;16985;50.814;8.530;2024-01-07T09:51:19;22.13;;;12.77;;
30173;SDS011;16985;50.814;8.530;2024-01-07T09:53:48;16.98;;;11.43;;
30173;SDS011;16985;50.814;8.530;2024-01-07T09:56:20;17.98;;;12.40;;
30173;SDS011;16985;50.814;8.530;2024-01-07T09:58:50;18.92;;;13.15;;
30173;SDS011;16985;50.814;8.530;2024-01-07T10:01:17;17.92;;;11.95;;
30173;SDS011;16985;50.814;8.530;2024-01-07T10:03:43;18.33;;;11.85;;
30173;SDS011;16985;50.814;8.530;2024-01-07T10:06:13;21.23;;;12.90;;
30173;SDS011;16985;50.814;8.530;2024-01-07T10:08:39;19.45;;;12.50;;
30173;SDS011;16985;50.814;8.530;2024-01-07T10:11:05;22.77;;;12.75;;
30173;SDS011;16985;50.814;8.530;2024-01-07T10:13:34;18.70;;;12.00;;
30173;SDS011;16985;50.814;8.530;2024-01-07T10:16:00;20.45;;;12.57;;
30173;SDS011;16985;50.814;8.530;2024-01-07T10:18:26;22.27;;;12.68;;
30173;SDS011;16985;50.814;8.530;2024-01-07T10:20:56;18.50;;;11.65;;
30173;SDS011;16985;50.814;8.530;2024-01-07T10:23:28;22.52;;;13.05;;
30173;SDS011;16985;50.814;8.530;2024-01-07T10:25:55;19.38;;;11.98;;
30173;SDS011;16985;50.814;8.530;2024-01-07T10:28:22;17.75;;;12.73;;
30173;SDS011;16985;50.814;8.530;2024-01-07T10:30:48;18.77;;;12.38;;
30173;SDS011;16985;50.814;8.530;2024-01-07T10:33:17;19.00;;;11.77;;
30173;SDS011;16985;50.814;8.530;2024-01-07T10:35:46;21.13;;;12.32;;
30173;SDS011;16985;50.814;8.530;2024-01-07T10:38:24;17.77;;;10.68;;
30173;SDS011;16985;50.814;8.530;2024-01-07T10:40:50;20.40;;;10.88;;
30173;SDS011;16985;50.814;8.530;2024-01-07T10:43:20;16.90;;;11.25;;
30173;SDS011;16985;50.814;8.530;2024-01-07T10:45:47;19.55;;;10.93;;
30173;SDS011;16985;50.814;8.530;2024-01-07T10:48:18;16.77;;;10.50;;
30173;SDS011;16985;50.814;8.530;2024-01-07T10:50:45;18.02;;;11.45;;
30173;SDS011;16985;50.814;8.530;2024-01-07T10:53:17;17.88;;;12.02;;
30173;SDS011;16985;50.814;8.530;2024-01-07T10:55:52;21.75;;;12.02;;
30173;SDS011;16985;50.814;8.530;2024-01-07T10:58:25;16.10;;;10.90;;
30173;SDS011;16985;50.814;8.530;2024-01-07T11:00:51;22.02;;;11.73;;
30173;SDS011;16985;50.814;8.530;2024-01-07T11:03:20;19.92;;;10.93;;
30173;SDS011;16985;50.814;8.530;2024-01-07T11:06:02;21.05;;;11.32;;
30173;SDS011;16985;50.814;8.530;2024-01-07T11:09:02;16.55;;;10.73;;
30173;SDS011;16985;50.814;8.530;2024-01-07T11:17:05;21.67;;;11.63;;
30173;SDS011;16985;50.814;8.530;2024-01-07T11:19:31;21.15;;;11.48;;
30173;SDS011;16985;50.814;8.530;2024-01-07T11:22:41;18.85;;;10.93;;
30173;SDS011;16985;50.814;8.530;2024-01-07T11:24:54;20.23;;;11.63;;
30173;SDS011;16985;50.814;8.530;2024-01-07T11:27:31;19.90;;;11.75;;
30173;SDS011;16985;50.814;8.530;2024-01-07T11:29:57;21.30;;;12.45;;
30173;SDS011;16985;50.814;8.530;2024-01-07T11:32:30;16.05;;;10.05;;
30173;SDS011;16985;50.814;8.530;2024-01-07T11:34:58;19.08;;;10.93;;
30173;SDS011;16985;50.814;8.530;2024-01-07T11:37:24;19.13;;;10.57;;
30173;SDS011;16985;50.814;8.530;2024-01-07T11:39:51;20.17;;;11.75;;
30173;SDS011;16985;50.814;8.530;2024-01-07T11:42:21;19.58;;;11.02;;
30173;SDS011;16985;50.814;8.530;2024-01-07T11:47:20;21.40;;;11.73;;
30173;SDS011;16985;50.814;8.530;2024-01-07T11:49:48;20.92;;;11.43;;
30173;SDS011;16985;50.814;8.530;2024-01-07T11:52:16;17.30;;;10.77;;
30173;SDS011;16985;50.814;8.530;2024-01-07T11:54:43;18.88;;;10.93;;
30173;SDS011;16985;50.814;8.530;2024-01-07T11:57:09;18.05;;;10.30;;
30173;SDS011;16985;50.814;8.530;2024-01-07T11:59:36;15.80;;;9.82;;
30173;SDS011;16985;50.814;8.530;2024-01-07T12:02:02;15.93;;;9.60;;
30173;SDS011;16985;50.814;8.530;2024-01-07T12:04:32;17.50;;;9.65;;
30173;SDS011;16985;50.814;8.530;2024-01-07T12:06:58;17.58;;;9.40;;
30173;SDS011;16985;50.814;8.530;2024-01-07T12:09:25;15.52;;;9.05;;
30173;SDS011;16985;50.814;8.530;2024-01-07T12:11:52;14.85;;;8.43;;
30173;SDS011;16985;50.814;8.530;2024-01-07T12:14:18;15.63;;;8.63;;
30173;SDS011;16985;50.814;8.530;2024-01-07T12:16:44;11.85;;;7.95;;
30173;SDS011;16985;50.814;8.530;2024-01-07T12:19:11;14.82;;;8.38;;
30173;SDS011;16985;50.814;8.530;2024-01-07T12:21:37;11.30;;;7.53;;
30173;SDS011;16985;50.814;8.530;2024-01-07T12:24:04;13.45;;;8.50;;
30173;SDS011;16985;50.814;8.530;2024-01-07T12:26:30;12.20;;;7.43;;
30173;SDS011;16985;50.814;8.530;2024-01-07T12:28:58;11.43;;;6.68;;
30173;SDS011;16985;50.814;8.530;2024-01-07T12:31:32;12.02;;;6.53;;
30173;SDS011;16985;50.814;8.530;2024-01-07T12:33:59;11.65;;;7.63;;
30173;SDS011;16985;50.814;8.530;2024-01-07T12:36:29;11.25;;;6.95;;
30173;SDS011;16985;50.814;8.530;2024-01-07T12:38:55;7.72;;;5.75;;
30173;SDS011;16985;50.814;8.530;2024-01-07T12:41:22;9.30;;;6.27;;
30173;SDS011;16985;50.814;8.530;2024-01-07T12:43:48;11.75;;;6.88;;
30173;SDS011;16985;50.814;8.530;2024-01-07T12:46:15;9.73;;;6.38;;
30173;SDS011;16985;50.814;8.530;2024-01-07T12:48:41;8.73;;;5.97;;
30173;SDS011;16985;50.814;8.530;2024-01-07T12:51:07;9.75;;;6.20;;
30173;SDS011;16985;50.814;8.530;2024-01-07T12:53:33;8.93;;;5.88;;
30173;SDS011;16985;50.814;8.530;2024-01-07T12:55:59;8.82;;;6.32;;
30173;SDS011;16985;50.814;8.530;2024-01-07T12:58:24;12.30;;;5.93;;
30173;SDS011;16985;50.814;8.530;2024-01-07T13:00:50;9.35;;;5.60;;
30173;SDS011;16985;50.814;8.530;2024-01-07T13:03:16;9.35;;;5.72;;
30173;SDS011;16985;50.814;8.530;2024-01-07T13:05:43;9.98;;;5.28;;
30173;SDS011;16985;50.814;8.530;2024-01-07T13:08:11;7.78;;;5.38;;
30173;SDS011;16985;50.814;8.530;2024-01-07T13:10:38;7.82;;;5.60;;
30173;SDS011;16985;50.814;8.530;2024-01-07T13:13:04;8.80;;;6.13;;
30173;SDS011;16985;50.814;8.530;2024-01-07T13:15:30;10.63;;;5.82;;
30173;SDS011;16985;50.814;8.530;2024-01-07T13:17:56;9.82;;;6.22;;
30173;SDS011;16985;50.814;8.530;2024-01-07T13:20:22;10.15;;;5.57;;
30173;SDS011;16985;50.814;8.530;2024-01-07T13:22:49;9.93;;;5.63;;
30173;SDS011;16985;50.814;8.530;2024-01-07T13:25:15;13.60;;;6.40;;
30173;SDS011;16985;50.814;8.530;2024-01-07T13:27:41;11.70;;;6.32;;
30173;SDS011;16985;50.814;8.530;2024-01-07T13:30:07;11.00;;;6.45;;
30173;SDS011;16985;50.814;8.530;2024-01-07T13:32:34;10.35;;;6.38;;
30173;SDS011;16985;50.814;8.530;2024-01-07T13:35:05;8.40;;;6.40;;
30173;SDS011;16985;50.814;8.530;2024-01-07T13:37:36;12.45;;;6.60;;
30173;SDS011;16985;50.814;8.530;2024-01-07T13:40:02;7.40;;;5.75;;
30173;SDS011;16985;50.814;8.530;2024-01-07T13:42:29;9.73;;;5.93;;
30173;SDS011;16985;50.814;8.530;2024-01-07T13:44:55;10.05;;;6.65;;
30173;SDS011;16985;50.814;8.530;2024-01-07T13:47:21;9.98;;;5.95;;
30173;SDS011;16985;50.814;8.530;2024-01-07T13:49:47;11.82;;;6.60;;
30173;SDS011;16985;50.814;8.530;2024-01-07T13:52:13;8.50;;;5.60;;
30173;SDS011;16985;50.814;8.530;2024-01-07T13:54:38;8.15;;;5.43;;
30173;SDS011;16985;50.814;8.530;2024-01-07T13:57:04;12.05;;;6.03;;
30173;SDS011;16985;50.814;8.530;2024-01-07T13:59:32;8.15;;;5.35;;
30173;SDS011;16985;50.814;8.530;2024-01-07T14:01:58;8.98;;;6.32;;
30173;SDS011;16985;50.814;8.530;2024-01-07T14:04:24;7.88;;;5.28;;
30173;SDS011;16985;50.814;8.530;2024-01-07T14:06:54;8.82;;;6.03;;
30173;SDS011;16985;50.814;8.530;2024-01-07T14:09:21;6.43;;;5.05;;
30173;SDS011;16985;50.814;8.530;2024-01-07T14:11:47;5.90;;;4.78;;
30173;SDS011;16985;50.814;8.530;2024-01-07T14:14:13;8.30;;;4.90;;
30173;SDS011;16985;50.814;8.530;2024-01-07T14:16:39;5.90;;;5.07;;
30173;SDS011;16985;50.814;8.530;2024-01-07T14:19:05;9.00;;;6.43;;
30173;SDS011;16985;50.814;8.530;2024-01-07T14:21:31;8.30;;;5.15;;
30173;SDS011;16985;50.814;8.530;2024-01-07T14:23:57;5.28;;;3.67;;
30173;SDS011;16985;50.814;8.530;2024-01-07T14:26:23;5.35;;;4.10;;
30173;SDS011;16985;50.814;8.530;2024-01-07T14:28:50;6.82;;;4.72;;
30173;SDS011;16985;50.814;8.530;2024-01-07T14:31:16;9.98;;;4.97;;
30173;SDS011;16985;50.814;8.530;2024-01-07T14:33:42;6.53;;;4.30;;
30173;SDS011;16985;50.814;8.530;2024-01-07T14:36:09;5.72;;;4.43;;
30173;SDS011;16985;50.814;8.530;2024-01-07T14:38:43;6.78;;;4.68;;
30173;SDS011;16985;50.814;8.530;2024-01-07T14:41:10;5.75;;;3.95;;
30173;SDS011;16985;50.814;8.530;2024-01-07T14:43:36;8.32;;;4.78;;